createdAt,value
2022-09-15T00:00:57.816Z,1.50
2022-09-15T00:01:57.860Z,1.20
2022-09-15T00:02:57.817Z,1.10
2022-09-15T00:03:57.985Z,1.40
2022-09-15T00:04:57.795Z,1.00
2022-09-15T00:05:57.757Z,1.10
2022-09-15T00:06:57.744Z,1.30
2022-09-15T00:07:57.738Z,1.20
2022-09-15T00:08:57.787Z,1.10
2022-09-15T00:09:57.744Z,1.20
2022-09-15T00:10:57.730Z,1.20
2022-09-15T00:11:57.704Z,1.00
2022-09-15T00:12:57.684Z,0.90
2022-09-15T00:13:57.793Z,0.90
2022-09-15T00:14:57.679Z,0.80
2022-09-15T00:15:57.663Z,1.20
2022-09-15T00:16:57.689Z,1.00
2022-09-15T00:17:57.638Z,1.10
2022-09-15T00:18:57.661Z,1.10
2022-09-15T00:19:57.653Z,0.90
2022-09-15T00:20:57.621Z,1.00
2022-09-15T00:21:57.592Z,1.10
2022-09-15T00:22:57.588Z,1.00
2022-09-15T00:23:57.695Z,0.90
2022-09-15T00:24:57.555Z,0.90
2022-09-15T00:25:57.840Z,1.00
2022-09-15T00:26:57.578Z,0.90
2022-09-15T00:27:57.545Z,1.00
2022-09-15T00:28:57.622Z,1.00
2022-09-15T00:29:57.515Z,0.90
2022-09-15T00:30:57.562Z,1.00
2022-09-15T00:31:57.511Z,0.70
2022-09-15T00:32:57.475Z,1.10
2022-09-15T00:33:57.548Z,0.90
2022-09-15T00:34:57.467Z,1.30
2022-09-15T00:35:57.456Z,1.30
2022-09-15T00:36:57.458Z,0.80
2022-09-15T00:37:57.467Z,0.80
2022-09-15T00:38:57.506Z,1.00
2022-09-15T00:39:57.492Z,1.00
2022-09-15T00:40:57.405Z,1.10
2022-09-15T00:41:57.407Z,1.40
2022-09-15T00:42:57.428Z,0.90
2022-09-15T00:43:57.465Z,1.20
2022-09-15T00:44:57.368Z,1.20
2022-09-15T00:45:57.476Z,1.10
2022-09-15T00:47:15.628Z,1.30
2022-09-15T00:47:57.350Z,0.90
2022-09-15T00:48:57.329Z,1.50
2022-09-15T00:49:59.318Z,1.10
2022-09-15T00:50:57.302Z,1.30
2022-09-15T00:51:57.389Z,0.90
2022-09-15T00:52:57.279Z,1.00
2022-09-15T00:53:57.270Z,1.30
2022-09-15T00:54:57.248Z,1.10
2022-09-15T00:55:57.238Z,0.90
2022-09-15T00:56:57.238Z,1.50
2022-09-15T00:57:57.228Z,1.20
2022-09-15T00:58:57.282Z,1.00
2022-09-15T00:59:57.189Z,1.30
2022-09-15T01:00:57.307Z,0.90
2022-09-15T01:01:57.234Z,1.20
2022-09-15T01:02:57.190Z,0.70
2022-09-15T01:03:57.192Z,1.20
2022-09-15T01:04:58.531Z,1.30
2022-09-15T01:05:57.154Z,0.90
2022-09-15T01:06:57.143Z,1.80
2022-09-15T01:07:57.113Z,1.20
2022-09-15T01:08:57.116Z,1.10
2022-09-15T01:09:57.092Z,1.10
2022-09-15T01:10:57.085Z,1.40
2022-09-15T01:11:57.071Z,1.50
2022-09-15T01:12:57.079Z,0.90
2022-09-15T01:13:57.069Z,0.80
2022-09-15T01:14:57.067Z,1.00
2022-09-15T01:15:57.026Z,1.20
2022-09-15T01:16:57.145Z,1.10
2022-09-15T01:17:57.009Z,1.10
2022-09-15T01:18:57.017Z,1.10
2022-09-15T01:19:57.004Z,1.00
2022-09-15T01:20:57.009Z,1.50
2022-09-15T01:21:58.957Z,0.90
2022-09-15T01:22:56.972Z,1.00
2022-09-15T01:23:56.934Z,1.00
2022-09-15T01:24:56.957Z,1.20
2022-09-15T01:25:56.939Z,1.10
2022-09-15T01:26:56.918Z,1.10
2022-09-15T01:27:56.904Z,1.70
2022-09-15T01:28:56.919Z,1.30
2022-09-15T01:29:56.882Z,1.30
2022-09-15T01:30:56.880Z,1.20
2022-09-15T01:31:56.914Z,1.30
2022-09-15T01:32:56.858Z,1.50
2022-09-15T01:33:56.868Z,1.70
2022-09-15T01:34:56.846Z,1.10
2022-09-15T01:35:56.867Z,1.70
2022-09-15T01:36:56.816Z,1.20
2022-09-15T01:37:56.794Z,1.00
2022-09-15T01:38:56.848Z,1.10
2022-09-15T01:39:56.859Z,1.10
2022-09-15T01:40:56.791Z,1.10
2022-09-15T01:41:56.762Z,1.30
2022-09-15T01:42:56.767Z,1.00
2022-09-15T01:43:56.726Z,1.40
2022-09-15T01:44:56.740Z,1.20
2022-09-15T01:45:56.764Z,1.20
2022-09-15T01:46:56.709Z,0.90
2022-09-15T01:47:56.697Z,1.40
2022-09-15T01:48:56.696Z,0.80
2022-09-15T01:49:56.661Z,0.80
2022-09-15T01:50:56.694Z,1.00
2022-09-15T01:51:56.639Z,1.10
2022-09-15T01:52:56.647Z,0.90
2022-09-15T01:53:56.632Z,0.90
2022-09-15T01:54:56.631Z,1.40
2022-09-15T01:55:56.624Z,0.90
2022-09-15T01:56:56.606Z,1.10
2022-09-15T01:57:56.615Z,1.00
2022-09-15T01:58:56.618Z,1.70
2022-09-15T01:59:56.564Z,0.90
2022-09-15T02:00:56.641Z,0.90
2022-09-15T02:01:56.604Z,1.30
2022-09-15T02:02:56.543Z,1.80
2022-09-15T02:03:56.517Z,1.10
2022-09-15T02:04:56.526Z,1.00
2022-09-15T02:05:56.500Z,1.00
2022-09-15T02:06:56.526Z,1.20
2022-09-15T02:07:56.468Z,1.30
2022-09-15T02:08:56.471Z,1.10
2022-09-15T02:09:56.469Z,1.80
2022-09-15T02:10:56.492Z,1.70
2022-09-15T02:11:56.454Z,1.10
2022-09-15T02:12:56.457Z,1.10
2022-09-15T02:13:56.441Z,1.30
2022-09-15T02:14:56.451Z,0.90
2022-09-15T02:15:56.388Z,0.80
2022-09-15T02:16:56.384Z,0.90
2022-09-15T02:17:56.390Z,1.10
2022-09-15T02:18:56.365Z,1.40
2022-09-15T02:19:56.353Z,1.30
2022-09-15T02:20:56.362Z,1.30
2022-09-15T02:21:56.324Z,1.20
2022-09-15T02:22:56.350Z,1.00
2022-09-15T02:23:56.360Z,1.00
2022-09-15T02:24:56.293Z,1.50
2022-09-15T02:25:56.290Z,1.00
2022-09-15T02:26:56.281Z,1.50
2022-09-15T02:27:56.290Z,0.80
2022-09-15T02:28:56.266Z,1.40
2022-09-15T02:29:56.261Z,1.50
2022-09-15T02:30:56.246Z,2.30
2022-09-15T02:31:56.309Z,1.30
2022-09-15T02:32:56.313Z,0.90
2022-09-15T02:33:56.199Z,1.30
2022-09-15T02:34:56.200Z,1.10
2022-09-15T02:35:56.188Z,1.20
2022-09-15T02:36:56.166Z,1.10
2022-09-15T02:37:56.172Z,1.20
2022-09-15T02:38:56.199Z,1.30
2022-09-15T02:39:56.168Z,1.60
2022-09-15T02:40:56.132Z,1.20
2022-09-15T02:41:56.223Z,2.30
2022-09-15T02:42:56.104Z,1.30
2022-09-15T02:43:56.095Z,1.80
2022-09-15T02:44:56.083Z,1.30
2022-09-15T02:45:56.109Z,1.50
2022-09-15T02:46:56.067Z,1.00
2022-09-15T02:47:56.032Z,1.60
2022-09-15T02:48:56.180Z,1.30
2022-09-15T02:49:56.019Z,1.10
2022-09-15T02:50:56.014Z,1.20
2022-09-15T02:51:55.984Z,1.30
2022-09-15T02:52:56.091Z,1.60
2022-09-15T02:53:56.035Z,1.40
2022-09-15T02:54:55.965Z,1.10
2022-09-15T02:55:55.942Z,1.00
2022-09-15T02:56:55.956Z,1.40
2022-09-15T02:57:55.929Z,1.00
2022-09-15T02:58:55.922Z,1.40
2022-09-15T02:59:55.941Z,0.80
2022-09-15T03:00:55.957Z,1.30
2022-09-15T03:01:55.933Z,1.00
2022-09-15T03:02:55.882Z,1.50
2022-09-15T03:03:55.907Z,1.10
2022-09-15T03:04:55.850Z,1.10
2022-09-15T03:05:55.921Z,1.30
2022-09-15T03:06:55.839Z,1.00
2022-09-15T03:07:55.842Z,1.50
2022-09-15T03:08:56.073Z,1.10
2022-09-15T03:09:55.802Z,1.10
2022-09-15T03:10:55.801Z,1.80
2022-09-15T03:11:55.771Z,1.60
2022-09-15T03:12:55.767Z,1.50
2022-09-15T03:13:55.766Z,0.90
2022-09-15T03:14:55.783Z,0.90
2022-09-15T03:15:55.836Z,0.80
2022-09-15T03:16:55.718Z,1.20
2022-09-15T03:17:55.706Z,1.40
2022-09-15T03:18:55.703Z,1.30
2022-09-15T03:19:55.695Z,1.40
2022-09-15T03:20:55.677Z,1.00
2022-09-15T03:21:55.658Z,1.30
2022-09-15T03:22:55.667Z,1.40
2022-09-15T03:23:55.627Z,1.50
2022-09-15T03:24:55.642Z,1.40
2022-09-15T03:25:55.655Z,1.40
2022-09-15T03:26:59.511Z,1.00
2022-09-15T03:27:55.589Z,1.60
2022-09-15T03:28:55.621Z,1.60
2022-09-15T03:29:55.590Z,1.00
2022-09-15T03:30:55.570Z,1.40
2022-09-15T03:31:55.571Z,1.00
2022-09-15T03:32:55.540Z,1.40
2022-09-15T03:33:55.554Z,1.60
2022-09-15T03:34:58.543Z,1.50
2022-09-15T03:35:55.567Z,0.90
2022-09-15T03:36:55.497Z,1.30
2022-09-15T03:37:55.476Z,1.20
2022-09-15T03:38:55.482Z,1.30
2022-09-15T03:39:55.488Z,0.90
2022-09-15T03:40:55.469Z,1.20
2022-09-15T03:41:55.443Z,1.20
2022-09-15T03:42:55.433Z,1.50
2022-09-15T03:43:55.410Z,0.80
2022-09-15T03:44:55.418Z,1.20
2022-09-15T03:45:55.464Z,1.20
2022-09-15T03:46:56.423Z,1.10
2022-09-15T03:47:55.371Z,1.20
2022-09-15T03:48:55.361Z,1.20
2022-09-15T03:49:55.363Z,1.30
2022-09-15T03:50:55.357Z,1.10
2022-09-15T03:51:55.323Z,1.50
2022-09-15T03:52:58.717Z,0.90
2022-09-15T03:53:55.305Z,1.20
2022-09-15T03:54:55.298Z,1.20
2022-09-15T03:55:55.291Z,1.10
2022-09-15T03:56:55.292Z,1.90
2022-09-15T03:57:55.258Z,1.10
2022-09-15T03:58:55.271Z,1.70
2022-09-15T03:59:55.235Z,1.00
2022-09-15T04:00:55.288Z,1.00
2022-09-15T04:01:55.354Z,1.10
2022-09-15T04:02:55.231Z,1.00
2022-09-15T04:03:55.195Z,1.80
2022-09-15T04:04:56.615Z,1.60
2022-09-15T04:05:55.170Z,1.20
2022-09-15T04:06:55.219Z,1.00
2022-09-15T04:07:55.146Z,1.40
2022-09-15T04:08:55.156Z,1.00
2022-09-15T04:09:55.128Z,1.10
2022-09-15T04:10:55.126Z,1.00
2022-09-15T04:11:55.139Z,1.50
2022-09-15T04:12:55.176Z,1.50
2022-09-15T04:13:55.087Z,1.40
2022-09-15T04:14:55.117Z,1.30
2022-09-15T04:15:55.135Z,1.30
2022-09-15T04:16:56.051Z,2.00
2022-09-15T04:17:55.060Z,1.10
2022-09-15T04:18:55.054Z,0.90
2022-09-15T04:19:55.060Z,1.20
2022-09-15T04:20:55.016Z,1.20
2022-09-15T04:21:55.010Z,1.40
2022-09-15T04:22:55.136Z,2.60
2022-09-15T04:23:55.000Z,1.10
2022-09-15T04:24:55.001Z,1.20
2022-09-15T04:25:55.401Z,1.20
2022-09-15T04:26:54.971Z,1.10
2022-09-15T04:27:54.972Z,2.00
2022-09-15T04:28:54.944Z,0.90
2022-09-15T04:29:54.904Z,1.00
2022-09-15T04:30:54.912Z,1.50
2022-09-15T04:31:54.948Z,0.90
2022-09-15T04:32:54.886Z,1.40
2022-09-15T04:33:55.108Z,2.00
2022-09-15T04:34:54.860Z,1.60
2022-09-15T04:35:54.841Z,1.60
2022-09-15T04:36:54.866Z,1.40
2022-09-15T04:37:54.817Z,1.40
2022-09-15T04:38:54.842Z,0.90
2022-09-15T04:39:54.799Z,1.20
2022-09-15T04:40:54.782Z,1.10
2022-09-15T04:41:54.779Z,1.20
2022-09-15T04:42:54.766Z,1.30
2022-09-15T04:43:54.708Z,0.90
2022-09-15T04:44:54.775Z,1.20
2022-09-15T04:45:54.718Z,1.40
2022-09-15T04:46:54.822Z,1.40
2022-09-15T04:47:54.700Z,1.40
2022-09-15T04:48:54.653Z,1.10
2022-09-15T04:49:54.683Z,1.10
2022-09-15T04:50:54.630Z,1.40
2022-09-15T04:51:54.607Z,1.00
2022-09-15T04:52:54.617Z,1.00
2022-09-15T04:53:54.653Z,1.30
2022-09-15T04:54:54.618Z,1.40
2022-09-15T04:55:54.571Z,1.50
2022-09-15T04:56:54.555Z,1.10
2022-09-15T04:57:54.564Z,1.40
2022-09-15T04:58:56.480Z,1.20
2022-09-15T04:59:54.537Z,1.20
2022-09-15T05:00:54.566Z,1.30
2022-09-15T05:01:54.562Z,1.10
2022-09-15T05:02:54.485Z,1.10
2022-09-15T05:03:55.990Z,1.10
2022-09-15T05:04:54.486Z,0.90
2022-09-15T05:05:54.484Z,1.40
2022-09-15T05:06:54.450Z,1.20
2022-09-15T05:07:58.552Z,1.20
2022-09-15T05:08:54.435Z,2.00
2022-09-15T05:09:54.422Z,1.70
2022-09-15T05:10:54.404Z,1.40
2022-09-15T05:11:54.437Z,0.60
2022-09-15T05:12:54.413Z,1.60
2022-09-15T05:13:54.376Z,1.70
2022-09-15T05:14:54.400Z,1.10
2022-09-15T05:15:54.420Z,1.10
2022-09-15T05:16:54.338Z,1.10
2022-09-15T05:17:54.348Z,1.50
2022-09-15T05:18:54.343Z,1.10
2022-09-15T05:19:54.317Z,1.20
2022-09-15T05:20:54.395Z,1.00
2022-09-15T05:21:54.285Z,1.30
2022-09-15T05:22:54.280Z,1.80
2022-09-15T05:23:54.280Z,1.30
2022-09-15T05:24:54.245Z,1.00
2022-09-15T05:25:54.241Z,1.20
2022-09-15T05:26:54.256Z,0.80
2022-09-15T05:27:54.241Z,1.00
2022-09-15T05:28:54.302Z,1.30
2022-09-15T05:30:09.792Z,1.10
2022-09-15T05:30:54.335Z,0.70
2022-09-15T05:31:54.299Z,0.80
2022-09-15T05:32:54.186Z,0.70
2022-09-15T05:33:54.189Z,0.90
2022-09-15T05:34:54.134Z,0.90
2022-09-15T05:35:54.137Z,1.20
2022-09-15T05:36:54.121Z,1.00
2022-09-15T05:37:54.126Z,0.90
2022-09-15T05:38:54.124Z,0.90
2022-09-15T05:39:54.139Z,1.30
2022-09-15T05:40:54.077Z,1.30
2022-09-15T05:41:54.066Z,1.30
2022-09-15T05:42:54.063Z,1.40
2022-09-15T05:43:54.058Z,1.70
2022-09-15T05:44:54.030Z,1.30
2022-09-15T05:45:54.084Z,1.00
2022-09-15T05:46:54.128Z,1.30
2022-09-15T05:47:54.038Z,1.00
2022-09-15T05:48:54.037Z,1.20
2022-09-15T05:49:53.994Z,1.20
2022-09-15T05:50:53.974Z,1.20
2022-09-15T05:51:53.964Z,1.00
2022-09-15T05:52:54.120Z,1.30
2022-09-15T05:53:53.977Z,1.10
2022-09-15T05:54:58.854Z,0.80
2022-09-15T05:55:53.941Z,0.90
2022-09-15T05:56:53.914Z,0.80
2022-09-15T05:57:53.920Z,1.00
2022-09-15T05:58:53.943Z,1.00
2022-09-15T05:59:53.915Z,0.70
2022-09-15T06:00:53.870Z,1.30
2022-09-15T06:01:53.915Z,1.30
2022-09-15T06:02:53.942Z,0.90
2022-09-15T06:03:53.864Z,1.20
2022-09-15T06:04:53.828Z,1.10
2022-09-15T06:05:53.834Z,1.10
2022-09-15T06:06:53.788Z,1.50
2022-09-15T06:07:53.821Z,1.70
2022-09-15T06:08:57.729Z,1.20
2022-09-15T06:09:53.768Z,1.20
2022-09-15T06:10:53.757Z,1.10
2022-09-15T06:11:53.759Z,0.90
2022-09-15T06:12:53.745Z,1.40
2022-09-15T06:13:53.754Z,0.60
2022-09-15T06:14:53.739Z,1.30
2022-09-15T06:15:53.728Z,0.70
2022-09-15T06:16:53.689Z,1.20
2022-09-15T06:17:53.679Z,1.30
2022-09-15T06:18:53.840Z,0.90
2022-09-15T06:19:53.671Z,1.10
2022-09-15T06:20:53.647Z,1.30
2022-09-15T06:21:53.639Z,1.00
2022-09-15T06:22:53.621Z,1.10
2022-09-15T06:23:54.036Z,0.90
2022-09-15T06:24:53.607Z,1.10
2022-09-15T06:25:53.599Z,1.20
2022-09-15T06:26:53.577Z,0.80
2022-09-15T06:27:53.578Z,0.90
2022-09-15T06:28:53.561Z,0.90
2022-09-15T06:29:53.606Z,1.00
2022-09-15T06:30:53.544Z,1.20
2022-09-15T06:31:53.584Z,0.90
2022-09-15T06:32:53.539Z,0.80
2022-09-15T06:33:53.725Z,0.90
2022-09-15T06:34:53.541Z,0.80
2022-09-15T06:35:53.497Z,0.70
2022-09-15T06:36:53.494Z,1.30
2022-09-15T06:37:53.477Z,0.60
2022-09-15T06:38:53.509Z,0.80
2022-09-15T06:39:53.555Z,1.20
2022-09-15T06:40:53.434Z,0.90
2022-09-15T06:42:02.163Z,0.90
2022-09-15T06:42:53.447Z,1.00
2022-09-15T06:43:53.644Z,0.90
2022-09-15T06:44:53.422Z,0.70
2022-09-15T06:45:53.978Z,0.60
2022-09-15T06:46:53.514Z,1.30
2022-09-15T06:48:13.390Z,0.60
2022-09-15T06:48:53.394Z,1.20
2022-09-15T06:49:53.442Z,1.20
2022-09-15T06:50:53.454Z,1.20
2022-09-15T06:51:53.681Z,0.90
2022-09-15T06:52:53.494Z,1.40
2022-09-15T06:53:53.461Z,0.80
2022-09-15T06:54:53.334Z,0.80
2022-09-15T06:55:53.361Z,1.00
2022-09-15T06:56:53.468Z,0.70
2022-09-15T06:57:53.261Z,0.80
2022-09-15T06:58:53.360Z,0.70
2022-09-15T06:59:53.405Z,0.60
2022-09-15T07:00:53.241Z,1.00
2022-09-15T07:01:53.247Z,0.90
2022-09-15T07:02:53.402Z,0.80
2022-09-15T07:03:53.297Z,1.00
2022-09-15T07:04:53.204Z,0.70
2022-09-15T07:05:53.281Z,0.60
2022-09-15T07:06:53.197Z,0.90
2022-09-15T07:07:53.159Z,0.80
2022-09-15T07:08:54.378Z,0.80
2022-09-15T07:09:53.136Z,1.00
2022-09-15T07:10:53.115Z,0.60
2022-09-15T07:11:53.154Z,0.90
2022-09-15T07:12:53.125Z,0.60
2022-09-15T07:13:53.308Z,0.60
2022-09-15T07:14:53.076Z,0.70
2022-09-15T07:15:53.224Z,0.80
2022-09-15T07:16:53.063Z,0.60
2022-09-15T07:17:53.220Z,0.80
2022-09-15T07:18:53.084Z,1.00
2022-09-15T07:19:53.097Z,0.60
2022-09-15T07:20:53.056Z,0.70
2022-09-15T07:21:53.440Z,0.60
2022-09-15T07:22:52.989Z,1.10
2022-09-15T07:23:53.147Z,0.70
2022-09-15T07:24:53.136Z,0.60
2022-09-15T07:25:53.023Z,0.80
2022-09-15T07:26:53.016Z,0.90
2022-09-15T07:27:53.183Z,1.00
2022-09-15T07:28:53.306Z,0.60
2022-09-15T07:29:53.244Z,1.00
2022-09-15T07:30:52.948Z,0.90
2022-09-15T07:31:53.228Z,0.50
2022-09-15T07:32:52.982Z,0.90
2022-09-15T07:33:53.259Z,0.70
2022-09-15T07:34:56.483Z,0.80
2022-09-15T07:35:53.111Z,0.70
2022-09-15T07:36:53.011Z,0.60
2022-09-15T07:37:52.938Z,0.80
2022-09-15T07:38:53.096Z,0.60
2022-09-15T07:39:52.881Z,0.70
2022-09-15T07:40:52.805Z,1.00
2022-09-15T07:41:52.950Z,0.90
2022-09-15T07:42:53.344Z,0.70
2022-09-15T07:43:52.884Z,0.70
2022-09-15T07:44:52.898Z,1.10
2022-09-15T07:45:52.955Z,0.70
2022-09-15T07:46:52.912Z,0.70
2022-09-15T07:47:52.796Z,0.80
2022-09-15T07:48:52.988Z,0.60
2022-09-15T07:49:53.332Z,1.10
2022-09-15T07:50:52.874Z,0.80
2022-09-15T07:51:52.877Z,0.60
2022-09-15T07:52:52.778Z,0.90
2022-09-15T07:53:53.225Z,0.60
2022-09-15T07:54:53.370Z,0.50
2022-09-15T07:55:52.758Z,0.90
2022-09-15T07:56:52.986Z,0.90
2022-09-15T07:57:52.742Z,0.60
2022-09-15T07:58:53.181Z,1.00
2022-09-15T07:59:53.608Z,0.80
2022-09-15T08:00:52.953Z,1.20
2022-09-15T08:01:52.881Z,0.70
2022-09-15T08:02:52.594Z,0.80
2022-09-15T08:03:52.794Z,0.90
2022-09-15T08:04:52.564Z,0.90
2022-09-15T08:05:53.232Z,0.80
2022-09-15T08:06:52.525Z,0.60
2022-09-15T08:07:53.059Z,0.50
2022-09-15T08:08:57.751Z,0.70
2022-09-15T08:09:52.693Z,0.80
2022-09-15T08:10:52.658Z,1.00
2022-09-15T08:11:52.899Z,0.80
2022-09-15T08:12:52.669Z,0.60
2022-09-15T08:13:52.793Z,0.70
2022-09-15T08:14:52.779Z,0.70
2022-09-15T08:15:52.562Z,1.00
2022-09-15T08:16:52.489Z,0.80
2022-09-15T08:17:52.522Z,0.90
2022-09-15T08:18:52.508Z,1.10
2022-09-15T08:19:52.407Z,0.90
2022-09-15T08:20:52.393Z,0.90
2022-09-15T08:21:52.364Z,1.00
2022-09-15T08:22:52.351Z,0.90
2022-09-15T08:23:52.343Z,0.70
2022-09-15T08:24:52.384Z,1.10
2022-09-15T08:25:52.310Z,0.70
2022-09-15T08:26:52.351Z,0.90
2022-09-15T08:27:52.294Z,0.70
2022-09-15T08:28:52.481Z,0.80
2022-09-15T08:29:52.349Z,0.80
2022-09-15T08:30:52.350Z,0.90
2022-09-15T08:31:52.260Z,0.80
2022-09-15T08:32:52.303Z,1.00
2022-09-15T08:33:52.238Z,0.70
2022-09-15T08:34:52.236Z,0.60
2022-09-15T08:35:52.225Z,1.70
2022-09-15T08:36:52.197Z,0.60
2022-09-15T08:37:52.187Z,0.50
2022-09-15T08:38:52.193Z,0.50
2022-09-15T08:39:52.239Z,0.60
2022-09-15T08:40:52.187Z,0.50
2022-09-15T08:41:52.165Z,0.80
2022-09-15T08:42:52.138Z,1.10
2022-09-15T08:43:52.226Z,0.50
2022-09-15T08:44:52.110Z,0.90
2022-09-15T08:45:52.108Z,0.40
2022-09-15T08:46:52.230Z,0.70
2022-09-15T08:47:52.124Z,1.00
2022-09-15T08:48:52.075Z,0.90
2022-09-15T08:49:52.728Z,0.60
2022-09-15T08:50:52.044Z,0.80
2022-09-15T08:51:52.093Z,0.50
2022-09-15T08:52:52.018Z,0.50
2022-09-15T08:54:44.359Z,0.60
2022-09-15T08:55:45.321Z,0.40
2022-09-15T08:56:45.290Z,1.10
2022-09-15T08:57:45.375Z,0.70
2022-09-15T08:58:45.271Z,0.60
2022-09-15T08:59:45.266Z,0.40
2022-09-15T09:00:45.268Z,0.90
2022-09-15T09:01:45.295Z,0.90
2022-09-15T09:02:45.326Z,0.50
2022-09-15T09:03:45.219Z,0.30
2022-09-15T09:04:45.201Z,0.30
2022-09-15T09:05:45.231Z,0.40
2022-09-15T09:06:45.186Z,0.60
2022-09-15T09:07:45.194Z,0.60
2022-09-15T09:08:45.334Z,0.40
2022-09-15T09:09:45.162Z,0.40
2022-09-15T09:10:45.148Z,0.50
2022-09-15T09:11:45.135Z,0.50
2022-09-15T09:12:45.150Z,0.50
2022-09-15T09:13:45.127Z,0.50
2022-09-15T09:14:45.093Z,0.50
2022-09-15T09:15:45.147Z,0.50
2022-09-15T09:16:45.074Z,0.40
2022-09-15T09:17:45.088Z,0.50
2022-09-15T09:18:45.075Z,0.60
2022-09-15T09:19:45.052Z,0.90
2022-09-15T09:20:45.032Z,0.80
2022-09-15T09:21:45.035Z,0.80
2022-09-15T09:22:45.044Z,0.70
2022-09-15T09:23:45.125Z,0.60
2022-09-15T09:24:45.005Z,0.50
2022-09-15T09:25:44.980Z,0.40
2022-09-15T09:26:44.974Z,0.50
2022-09-15T09:27:44.966Z,0.30
2022-09-15T09:28:44.965Z,0.40
2022-09-15T09:29:44.955Z,0.50
2022-09-15T09:30:44.992Z,0.40
2022-09-15T09:31:44.911Z,0.80
2022-09-15T09:32:44.921Z,0.40
2022-09-15T09:33:47.782Z,0.50
2022-09-15T09:34:44.887Z,0.50
2022-09-15T09:35:44.907Z,0.40
2022-09-15T09:36:44.872Z,0.40
2022-09-15T09:37:44.861Z,0.40
2022-09-15T09:38:44.863Z,0.40
2022-09-15T09:39:44.864Z,0.30
2022-09-15T09:40:44.832Z,0.30
2022-09-15T09:41:44.838Z,0.30
2022-09-15T09:42:44.800Z,0.60
2022-09-15T09:43:44.901Z,0.40
2022-09-15T09:44:44.776Z,0.40
2022-09-15T09:45:44.822Z,0.70
2022-09-15T09:46:44.764Z,0.30
2022-09-15T09:47:44.757Z,0.40
2022-09-15T09:48:44.736Z,0.30
2022-09-15T09:49:44.751Z,0.40
2022-09-15T09:50:44.708Z,0.40
2022-09-15T09:51:44.737Z,0.40
2022-09-15T09:52:44.694Z,0.30
2022-09-15T09:53:44.783Z,0.30
2022-09-15T09:54:44.673Z,0.40
2022-09-15T09:55:44.704Z,0.20
2022-09-15T09:56:44.649Z,0.60
2022-09-15T09:57:44.668Z,0.30
2022-09-15T09:58:44.792Z,0.30
2022-09-15T09:59:44.636Z,0.30
2022-09-15T10:00:44.610Z,0.30
2022-09-15T10:01:44.672Z,0.40
2022-09-15T10:02:44.591Z,0.30
2022-09-15T10:03:44.592Z,0.40
2022-09-15T10:04:44.699Z,0.30
2022-09-15T10:05:44.571Z,0.40
2022-09-15T10:06:44.577Z,0.50
2022-09-15T10:07:44.689Z,0.40
2022-09-15T10:08:44.593Z,0.30
2022-09-15T10:09:44.593Z,0.70
2022-09-15T10:10:44.556Z,0.30
2022-09-15T10:11:44.499Z,0.40
2022-09-15T10:12:44.565Z,0.40
2022-09-15T10:13:44.572Z,0.70
2022-09-15T10:14:44.615Z,0.30
2022-09-15T10:15:44.468Z,0.70
2022-09-15T10:16:44.474Z,0.50
2022-09-15T10:17:44.459Z,0.70
2022-09-15T10:18:44.468Z,0.30
2022-09-15T10:19:44.426Z,0.30
2022-09-15T10:20:44.416Z,0.30
2022-09-15T10:21:44.406Z,0.30
2022-09-15T10:22:44.383Z,0.40
2022-09-15T10:23:44.386Z,0.50
2022-09-15T10:24:44.385Z,0.30
2022-09-15T10:25:58.642Z,0.20
2022-09-15T10:26:44.383Z,0.30
2022-09-15T10:27:44.339Z,0.50
2022-09-15T10:28:44.312Z,0.30
2022-09-15T10:29:44.362Z,0.40
2022-09-15T10:30:44.287Z,0.30
2022-09-15T10:31:44.458Z,0.60
2022-09-15T10:32:44.347Z,0.60
2022-09-15T10:33:44.274Z,0.40
2022-09-15T10:34:44.523Z,0.60
2022-09-15T10:35:44.540Z,0.40
2022-09-15T10:36:44.249Z,0.20
2022-09-15T10:37:44.248Z,0.30
2022-09-15T10:38:44.284Z,0.20
2022-09-15T10:39:44.209Z,0.20
2022-09-15T10:40:44.215Z,0.30
2022-09-15T10:41:44.245Z,0.20
2022-09-15T10:42:44.183Z,0.20
2022-09-15T10:43:44.565Z,0.30
2022-09-15T10:44:44.167Z,0.30
2022-09-15T10:45:44.219Z,0.20
2022-09-15T10:46:44.125Z,0.40
2022-09-15T10:47:44.118Z,0.50
2022-09-15T10:48:44.108Z,0.30
2022-09-15T10:49:44.139Z,0.30
2022-09-15T10:50:44.096Z,0.20
2022-09-15T10:51:44.215Z,0.30
2022-09-15T10:52:44.100Z,0.50
2022-09-15T10:53:44.171Z,0.40
2022-09-15T10:54:44.032Z,0.10
2022-09-15T10:55:52.911Z,0.20
2022-09-15T10:56:44.044Z,0.30
2022-09-15T10:57:44.016Z,0.20
2022-09-15T10:58:45.777Z,0.30
2022-09-15T10:59:43.994Z,0.30
2022-09-15T11:00:44.080Z,0.40
2022-09-15T11:01:44.065Z,0.20
2022-09-15T11:02:44.055Z,0.30
2022-09-15T11:03:43.956Z,0.40
2022-09-15T11:04:43.950Z,0.30
2022-09-15T11:05:43.929Z,0.30
2022-09-15T11:06:44.034Z,0.20
2022-09-15T11:07:43.938Z,0.10
2022-09-15T11:08:43.884Z,0.20
2022-09-15T11:09:43.871Z,0.10
2022-09-15T11:10:43.863Z,0.20
2022-09-15T11:11:43.871Z,0.20
2022-09-15T11:12:43.853Z,0.10
2022-09-15T11:13:43.901Z,0.40
2022-09-15T11:14:43.838Z,0.20
2022-09-15T11:15:43.812Z,0.10
2022-09-15T11:16:43.885Z,0.40
2022-09-15T11:17:43.823Z,0.20
2022-09-15T11:18:43.811Z,0.40
2022-09-15T11:19:43.903Z,0.20
2022-09-15T11:20:43.788Z,0.50
2022-09-15T11:21:43.799Z,0.10
2022-09-15T11:22:48.734Z,0.30
2022-09-15T11:23:43.808Z,0.20
2022-09-15T11:24:43.722Z,0.20
2022-09-15T11:25:43.713Z,0.10
2022-09-15T11:26:43.722Z,0.20
2022-09-15T11:27:43.718Z,0.40
2022-09-15T11:28:43.873Z,0.20
2022-09-15T11:29:43.670Z,0.20
2022-09-15T11:30:47.652Z,0.20
2022-09-15T11:31:43.798Z,0.20
2022-09-15T11:32:43.967Z,0.40
2022-09-15T11:33:43.638Z,0.30
2022-09-15T11:34:43.610Z,0.20
2022-09-15T11:35:43.618Z,0.30
2022-09-15T11:36:43.637Z,0.30
2022-09-15T11:37:43.608Z,0.30
2022-09-15T11:38:43.574Z,0.30
2022-09-15T11:39:43.561Z,0.50
2022-09-15T11:40:43.547Z,0.20
2022-09-15T11:41:43.596Z,0.30
2022-09-15T11:42:43.692Z,0.30
2022-09-15T11:43:43.519Z,0.30
2022-09-15T11:44:43.515Z,0.40
2022-09-15T11:45:43.503Z,0.30
2022-09-15T11:46:43.583Z,0.30
2022-09-15T11:47:43.560Z,0.20
2022-09-15T11:48:43.465Z,0.20
2022-09-15T11:49:43.454Z,0.40
2022-09-15T11:50:43.443Z,0.40
2022-09-15T11:51:43.479Z,0.30
2022-09-15T11:52:44.360Z,0.30
2022-09-15T11:53:45.148Z,0.20
2022-09-15T11:54:44.334Z,0.30
2022-09-15T11:55:43.593Z,0.30
2022-09-15T11:56:44.250Z,0.30
2022-09-15T11:57:45.363Z,0.40
2022-09-15T11:58:43.450Z,0.40
2022-09-15T11:59:44.250Z,0.30
2022-09-15T12:00:44.392Z,0.30
2022-09-15T12:01:43.521Z,0.30
2022-09-15T12:02:43.418Z,0.30
2022-09-15T12:03:43.468Z,0.40
2022-09-15T12:04:43.338Z,0.40
2022-09-15T12:05:43.939Z,0.40
2022-09-15T12:06:45.824Z,0.30
2022-09-15T12:07:43.374Z,0.30
2022-09-15T12:08:43.419Z,0.30
2022-09-15T12:09:43.334Z,0.30
2022-09-15T12:10:43.397Z,0.40
2022-09-15T12:11:43.367Z,0.30
2022-09-15T12:12:44.350Z,0.30
2022-09-15T12:13:43.341Z,0.30
2022-09-15T12:14:43.330Z,0.30
2022-09-15T12:15:43.307Z,0.30
2022-09-15T12:16:45.796Z,0.30
2022-09-15T12:17:43.894Z,0.40
2022-09-15T12:18:46.169Z,0.30
2022-09-15T12:19:43.763Z,0.30
2022-09-15T12:20:43.262Z,0.40
2022-09-15T12:21:43.390Z,0.60
2022-09-15T12:22:43.205Z,0.20
2022-09-15T12:23:43.174Z,0.50
2022-09-15T12:24:44.334Z,0.30
2022-09-15T12:25:43.157Z,0.40
2022-09-15T12:26:43.161Z,0.50
2022-09-15T12:27:43.853Z,0.80
2022-09-15T12:28:44.252Z,0.30
2022-09-15T12:29:43.144Z,0.50
2022-09-15T12:30:43.876Z,0.50
2022-09-15T12:31:43.083Z,0.50
2022-09-15T12:32:43.075Z,0.40
2022-09-15T12:33:43.786Z,0.40
2022-09-15T12:34:43.952Z,0.50
2022-09-15T12:35:43.904Z,0.40
2022-09-15T12:36:43.779Z,0.80
2022-09-15T12:37:43.104Z,0.40
2022-09-15T12:38:43.654Z,0.50
2022-09-15T12:39:43.870Z,0.50
2022-09-15T12:40:44.016Z,0.30
2022-09-15T12:41:42.982Z,0.30
2022-09-15T12:42:42.928Z,0.30
2022-09-15T12:43:42.957Z,0.30
2022-09-15T12:44:43.866Z,0.50
2022-09-15T12:45:42.964Z,0.20
2022-09-15T12:46:43.797Z,0.60
2022-09-15T12:47:43.173Z,0.20
2022-09-15T12:48:46.750Z,0.20
2022-09-15T12:49:42.907Z,0.20
2022-09-15T12:50:43.674Z,0.20
2022-09-15T12:51:43.785Z,0.40
2022-09-15T12:52:42.899Z,1.20
2022-09-15T12:53:45.702Z,0.30
2022-09-15T12:54:42.843Z,0.60
2022-09-15T12:55:42.856Z,0.30
2022-09-15T12:56:43.335Z,0.80
2022-09-15T12:57:42.881Z,0.20
2022-09-15T12:58:42.783Z,0.20
2022-09-15T12:59:42.903Z,0.20
2022-09-15T13:01:06.823Z,0.20
2022-09-15T13:01:42.884Z,0.10
2022-09-15T13:02:42.803Z,0.40
2022-09-15T13:03:42.690Z,0.10
2022-09-15T13:04:42.711Z,0.30
2022-09-15T13:05:42.653Z,0.60
2022-09-15T13:06:42.881Z,0.10
2022-09-15T13:07:42.630Z,0.20
2022-09-15T13:08:42.620Z,0.50
2022-09-15T13:09:42.708Z,0.30
2022-09-15T13:10:42.626Z,0.20
2022-09-15T13:11:42.602Z,0.20
2022-09-15T13:12:42.586Z,0.20
2022-09-15T13:13:42.725Z,0.20
2022-09-15T13:14:42.582Z,0.20
2022-09-15T13:15:42.735Z,0.30
2022-09-15T13:16:42.852Z,0.40
2022-09-15T13:17:42.526Z,0.40
2022-09-15T13:18:42.569Z,0.20
2022-09-15T13:19:42.508Z,0.30